Time;durP1;ratioP1;P1;durP2;ratioP2;P2;SDS_P1;SDS_P2;PMS_P1;PMS_P2;Temp;Humidity;BMP_temperature;BMP_pressure;BME280_temperature;BME280_humidity;BME280_pressure;Samples;Min_cycle;Max_cycle;Signal;HPM_P1;HPM_P2
2021/01/06 00:00:17;;;;;;;;;;;20.10;27.10;;;;;;492066;240;1127;-70
2021/01/06 00:02:18;;;;;;;;;;;20.20;27.10;;;;;;492068;240;940;-70
2021/01/06 00:04:19;;;;;;;;;;;20.20;27.10;;;;;;492102;240;963;-70
2021/01/06 00:06:20;;;;;;;;;;;20.20;27.10;;;;;;492160;240;1003;-70
2021/01/06 00:08:22;;;;;;;;;;;20.20;27.10;;;;;;492049;240;928;-70
2021/01/06 00:10:23;;;;;;;;;;;20.20;27.00;;;;;;492090;240;1045;-70
2021/01/06 00:12:24;;;;;;;;;;;20.10;27.00;;;;;;492162;240;1046;-70
2021/01/06 00:14:26;;;;;;;;;;;20.00;27.10;;;;;;492144;240;965;-70
2021/01/06 00:16:27;;;;;;;;;;;20.10;27.10;;;;;;492121;240;1161;-70
2021/01/06 00:18:28;;;;;;;;;;;20.10;27.10;;;;;;492095;240;2187;-70
2021/01/06 00:20:29;;;;;;;;;;;20.10;27.10;;;;;;492010;240;1149;-70
2021/01/06 00:22:31;;;;;;;;;;;20.10;27.00;;;;;;492081;240;952;-70
2021/01/06 00:24:32;;;;;;;;;;;20.10;27.00;;;;;;492100;240;955;-70
2021/01/06 00:26:33;;;;;;;;;;;20.10;27.00;;;;;;492140;240;936;-70
2021/01/06 00:28:35;;;;;;;;;;;20.10;27.00;;;;;;492124;240;960;-70
2021/01/06 00:30:36;;;;;;;;;;;20.20;27.00;;;;;;492065;240;1166;-70
2021/01/06 00:32:37;;;;;;;;;;;20.20;27.00;;;;;;492223;240;1026;-70
2021/01/06 00:34:39;;;;;;;;;;;20.10;27.00;;;;;;492107;240;1064;-70
2021/01/06 00:36:40;;;;;;;;;;;20.00;27.00;;;;;;492078;240;950;-70
2021/01/06 00:38:41;;;;;;;;;;;20.00;27.00;;;;;;492141;240;2172;-70
2021/01/06 00:40:43;;;;;;;;;;;20.00;27.10;;;;;;492125;240;942;-70
2021/01/06 00:42:44;;;;;;;;;;;19.90;27.10;;;;;;492096;240;935;-70
2021/01/06 00:44:45;;;;;;;;;;;20.00;27.10;;;;;;492110;240;1011;-70
2021/01/06 00:46:46;;;;;;;;;;;20.00;27.10;;;;;;492009;240;1162;-70
2021/01/06 00:48:48;;;;;;;;;;;20.00;27.10;;;;;;492163;240;949;-70
2021/01/06 00:50:49;;;;;;;;;;;20.10;27.00;;;;;;492083;240;1161;-70
2021/01/06 00:52:50;;;;;;;;;;;20.20;27.00;;;;;;492087;240;963;-70
2021/01/06 00:54:52;;;;;;;;;;;20.20;27.00;;;;;;492128;240;939;-70
2021/01/06 00:56:53;;;;;;;;;;;20.10;26.90;;;;;;492088;240;1075;-70
2021/01/06 00:58:54;;;;;;;;;;;20.10;27.00;;;;;;492206;240;2175;-70
2021/01/06 01:00:55;;;;;;;;;;;20.10;27.00;;;;;;492145;240;1112;-70
2021/01/06 01:02:57;;;;;;;;;;;20.10;27.00;;;;;;492100;240;957;-70
2021/01/06 01:04:58;;;;;;;;;;;20.10;27.00;;;;;;492138;240;977;-70
2021/01/06 01:07:00;;;;;;;;;;;20.10;27.00;;;;;;492189;240;1099;-70
2021/01/06 01:09:01;;;;;;;;;;;20.10;27.00;;;;;;492057;240;935;-70
2021/01/06 01:11:02;;;;;;;;;;;20.10;26.90;;;;;;492120;240;1000;-71
2021/01/06 01:13:03;;;;;;;;;;;20.10;27.00;;;;;;492143;240;1247;-70
2021/01/06 01:15:05;;;;;;;;;;;20.00;27.00;;;;;;492099;240;944;-71
2021/01/06 01:17:08;;;;;;;;;;;20.10;27.00;;;;;;492168;240;1177;-70
2021/01/06 01:19:08;;;;;;;;;;;20.00;27.00;;;;;;492127;242;2140;-70
2021/01/06 01:21:09;;;;;;;;;;;20.00;27.00;;;;;;492165;240;1035;-70
2021/01/06 01:23:10;;;;;;;;;;;20.10;27.10;;;;;;492128;240;1000;-70
2021/01/06 01:25:12;;;;;;;;;;;20.10;27.00;;;;;;492120;240;1070;-70
2021/01/06 01:27:13;;;;;;;;;;;20.10;27.00;;;;;;492150;240;942;-70
2021/01/06 01:29:15;;;;;;;;;;;20.10;27.00;;;;;;492155;240;939;-70
2021/01/06 01:31:16;;;;;;;;;;;20.10;27.10;;;;;;492165;240;1153;-70
2021/01/06 01:33:17;;;;;;;;;;;20.00;27.10;;;;;;492142;240;1020;-70
2021/01/06 01:35:18;;;;;;;;;;;20.00;27.10;;;;;;492144;240;935;-70
2021/01/06 01:37:20;;;;;;;;;;;20.00;27.20;;;;;;492059;240;938;-70
2021/01/06 01:39:21;;;;;;;;;;;20.10;27.10;;;;;;492109;240;2183;-70
2021/01/06 01:41:23;;;;;;;;;;;20.00;27.10;;;;;;492087;240;981;-70
2021/01/06 01:43:24;;;;;;;;;;;20.00;27.20;;;;;;492057;240;1044;-70
2021/01/06 01:45:25;;;;;;;;;;;20.00;27.10;;;;;;492011;240;939;-70
2021/01/06 01:47:26;;;;;;;;;;;20.00;27.10;;;;;;492052;240;1155;-70
2021/01/06 01:49:28;;;;;;;;;;;20.10;27.20;;;;;;492048;240;968;-70
2021/01/06 01:51:29;;;;;;;;;;;20.10;27.10;;;;;;492060;240;1091;-70
2021/01/06 01:53:30;;;;;;;;;;;20.10;27.10;;;;;;492148;240;1013;-70
2021/01/06 01:55:31;;;;;;;;;;;20.10;27.20;;;;;;492072;240;929;-70
2021/01/06 01:57:33;;;;;;;;;;;20.10;27.20;;;;;;492076;240;2108;-70
2021/01/06 01:59:34;;;;;;;;;;;20.10;27.10;;;;;;492117;240;927;-70
2021/01/06 02:01:35;;;;;;;;;;;20.20;27.20;;;;;;492096;240;1136;-70
2021/01/06 02:03:37;;;;;;;;;;;20.10;27.20;;;;;;492086;240;987;-70
2021/01/06 02:05:38;;;;;;;;;;;20.00;27.20;;;;;;492209;240;1114;-70
2021/01/06 02:07:39;;;;;;;;;;;20.00;27.30;;;;;;492091;240;1032;-70
2021/01/06 02:09:41;;;;;;;;;;;20.00;27.30;;;;;;492200;240;1054;-71
2021/01/06 02:11:42;;;;;;;;;;;20.00;27.30;;;;;;492128;240;966;-70
2021/01/06 02:13:43;;;;;;;;;;;20.00;27.30;;;;;;492095;240;910;-70
2021/01/06 02:15:45;;;;;;;;;;;20.00;27.40;;;;;;492045;240;1160;-70
2021/01/06 02:17:46;;;;;;;;;;;20.10;27.30;;;;;;492065;240;2188;-70
2021/01/06 02:19:47;;;;;;;;;;;20.10;27.30;;;;;;492102;240;922;-70
2021/01/06 02:21:49;;;;;;;;;;;20.10;27.30;;;;;;492160;240;955;-70
2021/01/06 02:23:50;;;;;;;;;;;20.10;27.30;;;;;;492094;240;935;-70
2021/01/06 02:25:51;;;;;;;;;;;20.10;27.40;;;;;;492148;240;1141;-70
2021/01/06 02:27:52;;;;;;;;;;;20.00;27.40;;;;;;492154;240;1081;-70
2021/01/06 02:29:54;;;;;;;;;;;20.00;27.40;;;;;;492179;240;941;-69
2021/01/06 02:31:55;;;;;;;;;;;20.00;27.50;;;;;;492110;240;1137;-70
2021/01/06 02:33:56;;;;;;;;;;;20.00;27.50;;;;;;492125;240;918;-70
2021/01/06 02:35:58;;;;;;;;;;;20.00;27.50;;;;;;492085;240;1091;-70
2021/01/06 02:37:59;;;;;;;;;;;20.10;27.40;;;;;;492110;240;2180;-70
2021/01/06 02:40:00;;;;;;;;;;;20.10;27.50;;;;;;492105;240;934;-70
2021/01/06 02:42:01;;;;;;;;;;;20.00;27.50;;;;;;492123;240;959;-70
2021/01/06 02:44:03;;;;;;;;;;;20.10;27.50;;;;;;492029;240;1069;-70
2021/01/06 02:46:04;;;;;;;;;;;20.10;27.50;;;;;;492046;240;1144;-70
2021/01/06 02:48:05;;;;;;;;;;;20.10;27.50;;;;;;492160;240;1141;-70
2021/01/06 02:50:07;;;;;;;;;;;20.10;27.40;;;;;;492156;240;1145;-70
2021/01/06 02:52:08;;;;;;;;;;;20.10;27.50;;;;;;492098;240;955;-70
2021/01/06 02:54:09;;;;;;;;;;;20.10;27.50;;;;;;492176;240;929;-70
2021/01/06 02:56:10;;;;;;;;;;;20.10;27.50;;;;;;492065;240;1113;-70
2021/01/06 02:58:12;;;;;;;;;;;20.00;27.60;;;;;;492110;240;2183;-70
2021/01/06 03:00:13;;;;;;;;;;;20.00;27.60;;;;;;492101;240;948;-70
2021/01/06 03:02:14;;;;;;;;;;;20.00;27.60;;;;;;492135;240;1175;-70
2021/01/06 03:04:16;;;;;;;;;;;20.10;27.60;;;;;;492124;240;932;-70
2021/01/06 03:06:17;;;;;;;;;;;20.10;27.60;;;;;;492049;240;1158;-70
2021/01/06 03:08:18;;;;;;;;;;;20.00;27.60;;;;;;492081;240;984;-70
2021/01/06 03:10:20;;;;;;;;;;;20.00;27.70;;;;;;492113;240;970;-70
2021/01/06 03:12:21;;;;;;;;;;;20.00;27.70;;;;;;492114;240;1041;-70
2021/01/06 03:14:22;;;;;;;;;;;19.90;27.70;;;;;;492225;240;1104;-70
2021/01/06 03:16:23;;;;;;;;;;;19.90;27.80;;;;;;492152;240;945;-70
2021/01/06 03:18:25;;;;;;;;;;;19.90;27.80;;;;;;492099;240;2404;-70
2021/01/06 03:20:26;;;;;;;;;;;19.90;27.80;;;;;;492126;240;1082;-70
2021/01/06 03:22:27;;;;;;;;;;;19.90;27.80;;;;;;492249;240;955;-70
2021/01/06 03:24:29;;;;;;;;;;;19.90;27.80;;;;;;492146;240;945;-70
2021/01/06 03:26:30;;;;;;;;;;;20.00;27.80;;;;;;492156;240;968;-70
2021/01/06 03:28:31;;;;;;;;;;;20.00;27.80;;;;;;492099;240;867;-70
2021/01/06 03:30:32;;;;;;;;;;;19.90;27.80;;;;;;492139;240;1106;-70
2021/01/06 03:32:34;;;;;;;;;;;19.90;27.80;;;;;;492048;240;1179;-70
2021/01/06 03:34:35;;;;;;;;;;;19.90;27.80;;;;;;492144;240;1236;-70
2021/01/06 03:36:36;;;;;;;;;;;19.90;27.90;;;;;;492113;240;1060;-70
2021/01/06 03:38:38;;;;;;;;;;;19.90;27.90;;;;;;492156;240;2180;-70
2021/01/06 03:40:39;;;;;;;;;;;19.90;27.90;;;;;;492104;240;959;-70
2021/01/06 03:42:40;;;;;;;;;;;20.00;27.90;;;;;;492045;240;873;-70
2021/01/06 03:44:41;;;;;;;;;;;20.00;27.80;;;;;;492242;240;1003;-70
2021/01/06 03:46:43;;;;;;;;;;;20.10;27.70;;;;;;492096;240;958;-70
2021/01/06 03:48:44;;;;;;;;;;;20.10;27.60;;;;;;492129;240;1150;-70
2021/01/06 03:50:45;;;;;;;;;;;20.10;27.60;;;;;;492078;240;936;-70
2021/01/06 03:52:47;;;;;;;;;;;20.20;27.60;;;;;;492001;240;1033;-70
2021/01/06 03:54:48;;;;;;;;;;;20.20;27.60;;;;;;492154;240;961;-70
2021/01/06 03:56:49;;;;;;;;;;;20.20;27.60;;;;;;492060;240;1036;-70
2021/01/06 03:58:50;;;;;;;;;;;20.20;27.60;;;;;;492059;240;2187;-70
2021/01/06 04:00:52;;;;;;;;;;;20.20;27.60;;;;;;492130;240;1097;-70
2021/01/06 04:02:53;;;;;;;;;;;20.20;27.60;;;;;;492104;240;1156;-70
2021/01/06 04:04:55;;;;;;;;;;;20.20;27.60;;;;;;492080;240;970;-70
2021/01/06 04:06:56;;;;;;;;;;;20.20;27.60;;;;;;492031;240;1502;-70
2021/01/06 04:08:57;;;;;;;;;;;20.10;27.60;;;;;;492143;240;973;-70
2021/01/06 04:10:58;;;;;;;;;;;20.10;27.60;;;;;;492220;240;948;-70
2021/01/06 04:12:59;;;;;;;;;;;20.20;27.70;;;;;;492091;240;932;-70
2021/01/06 04:15:01;;;;;;;;;;;20.20;27.60;;;;;;492114;240;986;-70
2021/01/06 04:17:02;;;;;;;;;;;20.10;27.60;;;;;;492057;240;983;-70
2021/01/06 04:19:03;;;;;;;;;;;20.20;27.60;;;;;;492113;240;2200;-70
2021/01/06 04:21:05;;;;;;;;;;;20.20;27.60;;;;;;492046;240;1163;-70
2021/01/06 04:23:06;;;;;;;;;;;20.30;27.50;;;;;;492102;240;1017;-70
2021/01/06 04:25:07;;;;;;;;;;;20.20;27.50;;;;;;492203;240;943;-70
2021/01/06 04:27:09;;;;;;;;;;;20.20;27.50;;;;;;492127;240;959;-70
2021/01/06 04:29:10;;;;;;;;;;;20.20;27.50;;;;;;492183;240;1018;-70
2021/01/06 04:31:13;;;;;;;;;;;20.30;27.50;;;;;;492124;240;1068;-70
2021/01/06 04:33:12;;;;;;;;;;;20.30;27.50;;;;;;492118;242;1463;-70
2021/01/06 04:35:14;;;;;;;;;;;20.20;27.50;;;;;;492186;240;931;-70
2021/01/06 04:37:15;;;;;;;;;;;20.20;27.50;;;;;;492125;240;1022;-70
2021/01/06 04:39:16;;;;;;;;;;;20.20;27.50;;;;;;492072;240;2140;-70
2021/01/06 04:41:18;;;;;;;;;;;20.20;27.60;;;;;;492115;240;1047;-70
2021/01/06 04:43:19;;;;;;;;;;;20.20;27.50;;;;;;492150;240;958;-70
2021/01/06 04:45:20;;;;;;;;;;;20.20;27.50;;;;;;492163;240;1011;-70
2021/01/06 04:47:21;;;;;;;;;;;20.20;27.50;;;;;;492124;240;927;-70
2021/01/06 04:49:23;;;;;;;;;;;20.30;27.50;;;;;;492160;240;1160;-70
2021/01/06 04:51:24;;;;;;;;;;;20.30;27.50;;;;;;492125;240;959;-70
2021/01/06 04:53:25;;;;;;;;;;;20.20;27.50;;;;;;492188;240;1082;-70
2021/01/06 04:55:27;;;;;;;;;;;20.20;27.50;;;;;;492118;240;926;-70
2021/01/06 04:57:28;;;;;;;;;;;20.20;27.50;;;;;;492140;240;947;-70
2021/01/06 04:59:29;;;;;;;;;;;20.20;27.50;;;;;;492121;240;2137;-70
2021/01/06 05:01:30;;;;;;;;;;;20.30;27.50;;;;;;492161;240;881;-70
2021/01/06 05:03:32;;;;;;;;;;;20.20;27.50;;;;;;492103;240;1117;-70
2021/01/06 05:05:33;;;;;;;;;;;20.30;27.50;;;;;;492107;240;958;-70
2021/01/06 05:07:34;;;;;;;;;;;20.20;27.50;;;;;;492172;240;933;-70
2021/01/06 05:09:36;;;;;;;;;;;20.20;27.50;;;;;;492124;240;954;-70
2021/01/06 05:11:37;;;;;;;;;;;20.20;27.50;;;;;;492086;240;1094;-70
2021/01/06 05:13:38;;;;;;;;;;;20.20;27.50;;;;;;492186;240;1003;-70
2021/01/06 05:15:39;;;;;;;;;;;20.20;27.50;;;;;;492154;240;967;-70
2021/01/06 05:17:41;;;;;;;;;;;20.20;27.50;;;;;;492169;240;981;-70
2021/01/06 05:19:42;;;;;;;;;;;20.20;27.50;;;;;;492107;240;2187;-70
2021/01/06 05:21:43;;;;;;;;;;;20.20;27.50;;;;;;492096;240;943;-70
2021/01/06 05:23:45;;;;;;;;;;;20.20;27.50;;;;;;492184;240;959;-70
2021/01/06 05:25:46;;;;;;;;;;;20.20;27.50;;;;;;492109;240;1168;-70
2021/01/06 05:27:47;;;;;;;;;;;20.20;27.50;;;;;;492248;240;960;-70
2021/01/06 05:29:49;;;;;;;;;;;20.20;27.40;;;;;;492177;240;1062;-70
2021/01/06 05:31:50;;;;;;;;;;;20.20;27.50;;;;;;492069;240;937;-70
2021/01/06 05:33:51;;;;;;;;;;;20.30;27.40;;;;;;492166;240;1119;-70
2021/01/06 05:35:53;;;;;;;;;;;20.30;27.40;;;;;;492055;240;1252;-70
2021/01/06 05:37:56;;;;;;;;;;;20.30;27.40;;;;;;492051;240;1018;-70
2021/01/06 05:39:57;;;;;;;;;;;20.30;27.40;;;;;;492120;240;2191;-70
2021/01/06 05:41:58;;;;;;;;;;;20.30;27.40;;;;;;492186;240;1040;-70
2021/01/06 05:44:00;;;;;;;;;;;20.30;27.40;;;;;;492097;240;920;-70
2021/01/06 05:46:02;;;;;;;;;;;20.30;27.40;;;;;;492185;240;1225;-70
2021/01/06 05:48:03;;;;;;;;;;;20.30;27.40;;;;;;492162;240;990;-70
2021/01/06 05:50:04;;;;;;;;;;;20.20;27.40;;;;;;492088;240;1545;-70
2021/01/06 05:52:05;;;;;;;;;;;20.20;27.50;;;;;;492099;240;1093;-70
2021/01/06 05:54:06;;;;;;;;;;;20.20;27.50;;;;;;492147;240;1031;-70
2021/01/06 05:56:08;;;;;;;;;;;20.20;27.50;;;;;;492116;240;949;-70
2021/01/06 05:58:09;;;;;;;;;;;20.30;27.40;;;;;;492188;240;941;-70
2021/01/06 06:00:10;;;;;;;;;;;20.20;27.40;;;;;;492094;240;2403;-70
2021/01/06 06:02:12;;;;;;;;;;;20.20;27.40;;;;;;492099;240;1008;-70
2021/01/06 06:04:13;;;;;;;;;;;20.20;27.50;;;;;;492157;240;1138;-70
2021/01/06 06:06:14;;;;;;;;;;;20.20;27.50;;;;;;492095;240;988;-70
2021/01/06 06:08:15;;;;;;;;;;;20.20;27.50;;;;;;492203;240;935;-70
2021/01/06 06:10:18;;;;;;;;;;;20.20;27.40;;;;;;492159;240;1087;-70
2021/01/06 06:12:18;;;;;;;;;;;20.30;27.40;;;;;;492051;242;1488;-70
2021/01/06 06:14:19;;;;;;;;;;;20.20;27.40;;;;;;492191;240;880;-70
2021/01/06 06:16:21;;;;;;;;;;;20.30;27.40;;;;;;492004;240;1514;-70
2021/01/06 06:18:22;;;;;;;;;;;20.20;27.30;;;;;;492119;240;950;-70
2021/01/06 06:20:23;;;;;;;;;;;20.20;27.40;;;;;;492103;240;2453;-69
2021/01/06 06:22:24;;;;;;;;;;;20.30;27.40;;;;;;492072;240;1100;-70
2021/01/06 06:24:26;;;;;;;;;;;20.20;27.40;;;;;;492196;240;1100;-70
2021/01/06 06:26:27;;;;;;;;;;;20.20;27.40;;;;;;492170;240;1123;-70
2021/01/06 06:28:28;;;;;;;;;;;20.20;27.40;;;;;;492262;240;1098;-70
2021/01/06 06:30:30;;;;;;;;;;;20.30;27.40;;;;;;492178;240;1046;-70
2021/01/06 06:32:31;;;;;;;;;;;20.30;27.30;;;;;;492017;240;1149;-70
2021/01/06 06:34:32;;;;;;;;;;;20.20;27.30;;;;;;492110;240;1127;-70
2021/01/06 06:36:33;;;;;;;;;;;20.20;27.40;;;;;;492041;240;951;-70
2021/01/06 06:38:35;;;;;;;;;;;20.10;27.50;;;;;;492112;240;1049;-70
2021/01/06 06:40:36;;;;;;;;;;;20.20;27.50;;;;;;492104;240;2125;-70
2021/01/06 06:42:37;;;;;;;;;;;20.20;27.40;;;;;;492107;240;955;-70
2021/01/06 06:44:39;;;;;;;;;;;20.20;27.40;;;;;;492118;240;1016;-70
2021/01/06 06:46:40;;;;;;;;;;;20.20;27.40;;;;;;492099;240;941;-70
2021/01/06 06:48:41;;;;;;;;;;;20.30;27.40;;;;;;492105;240;961;-70
2021/01/06 06:50:43;;;;;;;;;;;20.30;27.40;;;;;;492087;240;1124;-71
2021/01/06 06:52:44;;;;;;;;;;;20.30;27.30;;;;;;492086;240;944;-70
2021/01/06 06:54:45;;;;;;;;;;;20.30;27.40;;;;;;492122;240;933;-70
2021/01/06 06:56:46;;;;;;;;;;;20.30;27.40;;;;;;491979;240;1139;-70
2021/01/06 06:58:48;;;;;;;;;;;20.20;27.40;;;;;;492118;240;947;-70
2021/01/06 07:00:49;;;;;;;;;;;20.20;27.40;;;;;;492117;240;2184;-70
2021/01/06 07:02:51;;;;;;;;;;;20.20;27.40;;;;;;492000;240;1065;-70
2021/01/06 07:04:52;;;;;;;;;;;20.20;27.40;;;;;;492079;242;1465;-70
2021/01/06 07:06:53;;;;;;;;;;;20.20;27.40;;;;;;491996;240;1635;-70
2021/01/06 07:08:54;;;;;;;;;;;20.20;27.40;;;;;;492102;240;959;-70
2021/01/06 07:10:55;;;;;;;;;;;20.20;27.40;;;;;;492059;240;1201;-70
2021/01/06 07:12:57;;;;;;;;;;;20.20;27.40;;;;;;492091;240;972;-70
2021/01/06 07:14:58;;;;;;;;;;;20.30;27.40;;;;;;492152;240;1117;-70
2021/01/06 07:17:00;;;;;;;;;;;20.20;27.40;;;;;;492129;240;924;-70
2021/01/06 07:19:01;;;;;;;;;;;20.20;27.40;;;;;;492098;240;1028;-70
2021/01/06 07:21:02;;;;;;;;;;;20.20;27.30;;;;;;492046;240;2171;-70
2021/01/06 07:23:04;;;;;;;;;;;20.20;27.40;;;;;;492106;240;1050;-70
2021/01/06 07:25:05;;;;;;;;;;;20.20;27.40;;;;;;492170;240;1007;-70
2021/01/06 07:27:06;;;;;;;;;;;20.20;27.40;;;;;;492107;240;927;-70
2021/01/06 07:29:07;;;;;;;;;;;20.20;27.40;;;;;;492124;240;921;-70
2021/01/06 07:31:10;;;;;;;;;;;20.10;27.40;;;;;;492104;240;951;-70
2021/01/06 07:33:10;;;;;;;;;;;20.20;27.40;;;;;;492084;240;1448;-70
2021/01/06 07:35:11;;;;;;;;;;;20.20;27.40;;;;;;492067;239;1286;-70
2021/01/06 07:37:14;;;;;;;;;;;20.20;27.40;;;;;;492038;240;963;-70
2021/01/06 07:39:16;;;;;;;;;;;20.20;27.40;;;;;;492065;240;1081;-70
2021/01/06 07:41:17;;;;;;;;;;;20.20;27.40;;;;;;492054;240;2187;-70
2021/01/06 07:43:18;;;;;;;;;;;20.20;27.30;;;;;;492047;240;964;-70
2021/01/06 07:45:20;;;;;;;;;;;20.30;27.30;;;;;;492016;240;1142;-70
2021/01/06 07:47:21;;;;;;;;;;;20.20;27.30;;;;;;492066;241;1503;-70
2021/01/06 07:49:22;;;;;;;;;;;20.30;27.30;;;;;;492172;240;1049;-71
2021/01/06 07:51:23;;;;;;;;;;;20.30;27.30;;;;;;492092;240;1201;-70
2021/01/06 07:53:24;;;;;;;;;;;20.30;27.30;;;;;;492120;240;962;-70
2021/01/06 07:55:26;;;;;;;;;;;20.30;27.30;;;;;;492094;240;1070;-70
2021/01/06 07:57:27;;;;;;;;;;;20.20;27.30;;;;;;492078;240;1386;-70
2021/01/06 07:59:30;;;;;;;;;;;20.20;27.30;;;;;;492154;240;1031;-70
2021/01/06 08:01:40;;;;;;;;;;;20.20;27.40;;;;;;492112;240;947;-70
2021/01/06 08:03:36;;;;;;;;;;;20.30;27.30;;;;;;492050;241;1394;-70
2021/01/06 08:05:38;;;;;;;;;;;20.30;27.30;;;;;;492046;240;1072;-70
2021/01/06 08:07:39;;;;;;;;;;;20.20;27.30;;;;;;492101;240;999;-70
2021/01/06 08:09:40;;;;;;;;;;;20.30;27.30;;;;;;492110;240;999;-70
2021/01/06 08:11:41;;;;;;;;;;;20.30;27.30;;;;;;492129;240;901;-70
2021/01/06 08:13:43;;;;;;;;;;;20.20;27.30;;;;;;492185;240;997;-70
2021/01/06 08:15:44;;;;;;;;;;;20.30;27.30;;;;;;492103;240;933;-70
2021/01/06 08:17:45;;;;;;;;;;;20.30;27.30;;;;;;492143;240;921;-70
2021/01/06 08:19:47;;;;;;;;;;;20.20;27.30;;;;;;492092;240;2144;-70
2021/01/06 08:21:48;;;;;;;;;;;20.20;27.30;;;;;;492082;240;1136;-70
2021/01/06 08:23:49;;;;;;;;;;;20.20;27.30;;;;;;492184;240;885;-70
2021/01/06 08:25:50;;;;;;;;;;;20.20;27.40;;;;;;492133;240;1022;-70
2021/01/06 08:27:52;;;;;;;;;;;20.30;27.30;;;;;;492098;240;965;-70
2021/01/06 08:29:53;;;;;;;;;;;20.20;27.30;;;;;;492083;240;963;-70
2021/01/06 08:31:54;;;;;;;;;;;20.20;27.30;;;;;;492006;240;1275;-70
2021/01/06 08:33:56;;;;;;;;;;;20.20;27.30;;;;;;492116;240;933;-70
2021/01/06 08:36:00;;;;;;;;;;;20.20;27.20;;;;;;492089;240;1126;-70
2021/01/06 08:37:58;;;;;;;;;;;20.20;27.30;;;;;;492081;241;1467;-70
2021/01/06 08:39:59;;;;;;;;;;;20.20;27.40;;;;;;492128;240;2137;-70
2021/01/06 08:42:01;;;;;;;;;;;20.20;27.30;;;;;;492086;240;1114;-70
2021/01/06 08:44:02;;;;;;;;;;;20.20;27.30;;;;;;492126;240;1168;-70
2021/01/06 08:46:03;;;;;;;;;;;20.20;27.30;;;;;;492130;240;1221;-70
2021/01/06 08:48:05;;;;;;;;;;;20.20;27.30;;;;;;492076;240;1079;-70
2021/01/06 08:50:06;;;;;;;;;;;20.30;27.30;;;;;;492099;240;986;-70
2021/01/06 08:52:07;;;;;;;;;;;20.20;27.30;;;;;;492013;240;1176;-70
2021/01/06 08:54:09;;;;;;;;;;;20.10;27.40;;;;;;492153;240;942;-70
2021/01/06 08:56:10;;;;;;;;;;;20.10;27.40;;;;;;492073;240;1352;-70
2021/01/06 08:58:11;;;;;;;;;;;20.20;27.40;;;;;;492120;240;977;-70
2021/01/06 09:00:12;;;;;;;;;;;20.20;27.40;;;;;;492077;240;2161;-70
2021/01/06 09:02:14;;;;;;;;;;;20.20;27.30;;;;;;492112;240;1217;-70
2021/01/06 09:04:15;;;;;;;;;;;20.20;27.30;;;;;;492107;240;939;-70
2021/01/06 09:06:16;;;;;;;;;;;20.20;27.40;;;;;;491990;240;1378;-70
2021/01/06 09:08:17;;;;;;;;;;;20.20;27.30;;;;;;492067;240;935;-70
2021/01/06 09:10:19;;;;;;;;;;;20.20;27.30;;;;;;492090;240;963;-70
2021/01/06 09:12:20;;;;;;;;;;;20.30;27.40;;;;;;492151;240;1214;-70
2021/01/06 09:14:21;;;;;;;;;;;20.20;27.40;;;;;;492146;240;974;-70
2021/01/06 09:16:23;;;;;;;;;;;20.20;27.40;;;;;;492087;240;1116;-70
2021/01/06 09:18:24;;;;;;;;;;;20.20;27.40;;;;;;492188;240;928;-70
2021/01/06 09:20:25;;;;;;;;;;;20.20;27.40;;;;;;492169;240;2124;-70
2021/01/06 09:22:27;;;;;;;;;;;20.20;27.40;;;;;;492137;240;1086;-70
2021/01/06 09:24:28;;;;;;;;;;;20.20;27.30;;;;;;492122;240;934;-70
2021/01/06 09:26:29;;;;;;;;;;;20.30;27.30;;;;;;492150;240;943;-70
2021/01/06 09:28:30;;;;;;;;;;;20.30;27.30;;;;;;492158;240;935;-71
2021/01/06 09:30:32;;;;;;;;;;;20.30;27.30;;;;;;492153;240;1055;-70
2021/01/06 09:32:33;;;;;;;;;;;20.30;27.20;;;;;;492125;240;948;-70
2021/01/06 09:34:34;;;;;;;;;;;20.30;27.30;;;;;;492140;240;988;-70
2021/01/06 09:36:36;;;;;;;;;;;20.30;27.40;;;;;;492063;240;1149;-70
2021/01/06 09:38:37;;;;;;;;;;;20.30;27.30;;;;;;492152;240;959;-70
2021/01/06 09:40:38;;;;;;;;;;;20.30;27.30;;;;;;492115;240;2175;-70
2021/01/06 09:42:40;;;;;;;;;;;20.30;27.30;;;;;;492117;240;1156;-70
2021/01/06 09:44:41;;;;;;;;;;;20.30;27.30;;;;;;492114;240;942;-70
2021/01/06 09:46:42;;;;;;;;;;;20.30;27.30;;;;;;492068;240;1134;-70
2021/01/06 09:48:43;;;;;;;;;;;20.40;27.30;;;;;;492195;240;974;-70
2021/01/06 09:50:45;;;;;;;;;;;20.40;27.30;;;;;;492108;240;1198;-70
2021/01/06 09:52:47;;;;;;;;;;;20.30;27.30;;;;;;492075;240;1177;-70
2021/01/06 09:54:50;;;;;;;;;;;20.30;27.40;;;;;;492113;240;938;-70
2021/01/06 09:56:51;;;;;;;;;;;20.20;27.40;;;;;;492085;240;924;-70
2021/01/06 09:58:52;;;;;;;;;;;20.30;27.40;;;;;;492074;240;1064;-70
2021/01/06 10:00:54;;;;;;;;;;;20.20;27.50;;;;;;492091;240;2187;-70
2021/01/06 10:02:55;;;;;;;;;;;20.20;27.50;;;;;;492107;240;1228;-70
2021/01/06 10:04:56;;;;;;;;;;;20.20;27.50;;;;;;492179;240;1110;-70
2021/01/06 10:06:57;;;;;;;;;;;20.20;27.50;;;;;;492088;240;1169;-70
2021/01/06 10:08:59;;;;;;;;;;;20.20;27.50;;;;;;492185;240;1003;-70
2021/01/06 10:11:00;;;;;;;;;;;20.20;27.50;;;;;;492093;240;964;-70
2021/01/06 10:13:02;;;;;;;;;;;20.20;27.50;;;;;;492106;240;945;-70
2021/01/06 10:15:03;;;;;;;;;;;20.30;27.50;;;;;;492017;240;985;-70
2021/01/06 10:17:04;;;;;;;;;;;20.30;27.40;;;;;;492016;240;1277;-70
2021/01/06 10:19:06;;;;;;;;;;;20.30;27.50;;;;;;492144;240;959;-70
2021/01/06 10:21:07;;;;;;;;;;;20.30;27.50;;;;;;492071;240;2140;-70
2021/01/06 10:23:08;;;;;;;;;;;20.30;27.50;;;;;;492114;240;1325;-70
2021/01/06 10:25:09;;;;;;;;;;;20.30;27.50;;;;;;492136;240;939;-70
2021/01/06 10:27:11;;;;;;;;;;;20.30;27.60;;;;;;492062;240;1082;-70
2021/01/06 10:29:12;;;;;;;;;;;20.20;27.60;;;;;;492015;240;1522;-70
2021/01/06 10:31:13;;;;;;;;;;;20.20;27.50;;;;;;492144;240;1200;-70
2021/01/06 10:33:15;;;;;;;;;;;20.30;27.50;;;;;;492085;240;1249;-70
2021/01/06 10:35:16;;;;;;;;;;;20.30;27.50;;;;;;492085;240;1998;-70
2021/01/06 10:37:17;;;;;;;;;;;20.30;27.50;;;;;;492056;240;1166;-70
2021/01/06 10:39:18;;;;;;;;;;;20.30;27.50;;;;;;492106;240;1062;-70
2021/01/06 10:41:20;;;;;;;;;;;20.20;27.60;;;;;;492074;240;2191;-70
2021/01/06 10:43:21;;;;;;;;;;;20.20;27.70;;;;;;492236;240;1059;-70
2021/01/06 10:45:22;;;;;;;;;;;20.20;27.70;;;;;;492054;240;915;-70
2021/01/06 10:47:24;;;;;;;;;;;20.20;27.70;;;;;;492121;240;981;-70
2021/01/06 10:49:25;;;;;;;;;;;20.10;27.70;;;;;;492154;240;946;-70
2021/01/06 10:51:26;;;;;;;;;;;20.10;27.70;;;;;;492123;240;962;-70
2021/01/06 10:53:29;;;;;;;;;;;20.10;27.70;;;;;;492081;240;1443;-70
2021/01/06 10:55:29;;;;;;;;;;;20.10;27.80;;;;;;491967;242;1480;-70
2021/01/06 10:57:30;;;;;;;;;;;20.10;27.80;;;;;;492059;240;1088;-70
2021/01/06 10:59:32;;;;;;;;;;;20.10;27.80;;;;;;492115;240;987;-70
2021/01/06 11:01:33;;;;;;;;;;;20.10;27.80;;;;;;492059;240;2184;-70
2021/01/06 11:03:34;;;;;;;;;;;20.10;27.80;;;;;;492164;240;976;-70
2021/01/06 11:05:37;;;;;;;;;;;20.10;27.70;;;;;;492164;240;969;-70
2021/01/06 11:07:38;;;;;;;;;;;20.10;27.70;;;;;;491966;240;1383;-70
2021/01/06 11:09:40;;;;;;;;;;;20.10;27.80;;;;;;492080;240;1097;-70
2021/01/06 11:11:41;;;;;;;;;;;20.20;27.80;;;;;;492073;240;1407;-70
2021/01/06 11:13:42;;;;;;;;;;;20.20;27.80;;;;;;492082;240;952;-70
2021/01/06 11:15:43;;;;;;;;;;;20.20;27.80;;;;;;492132;240;970;-70
2021/01/06 11:17:45;;;;;;;;;;;20.10;27.80;;;;;;492103;240;943;-70
2021/01/06 11:19:46;;;;;;;;;;;20.10;27.80;;;;;;492103;240;943;-70
2021/01/06 11:21:47;;;;;;;;;;;20.10;27.80;;;;;;492131;240;2125;-70
2021/01/06 11:23:48;;;;;;;;;;;20.10;27.80;;;;;;492001;240;1168;-70
2021/01/06 11:25:50;;;;;;;;;;;20.10;27.80;;;;;;492089;240;933;-69
2021/01/06 11:27:51;;;;;;;;;;;20.10;27.80;;;;;;492089;240;1058;-70
2021/01/06 11:29:52;;;;;;;;;;;20.10;27.80;;;;;;492087;240;1138;-69
2021/01/06 11:31:53;;;;;;;;;;;20.10;27.80;;;;;;492045;240;965;-69
2021/01/06 11:33:55;;;;;;;;;;;20.10;27.80;;;;;;492120;240;901;-70
2021/01/06 11:35:56;;;;;;;;;;;20.20;27.80;;;;;;492090;240;939;-70
2021/01/06 11:37:57;;;;;;;;;;;20.10;27.80;;;;;;492101;240;1121;-70
2021/01/06 11:39:59;;;;;;;;;;;20.10;27.80;;;;;;492134;240;1024;-70
2021/01/06 11:42:00;;;;;;;;;;;20.10;27.90;;;;;;492141;240;2188;-70
2021/01/06 11:44:01;;;;;;;;;;;20.10;27.80;;;;;;492171;240;935;-71
2021/01/06 11:46:02;;;;;;;;;;;20.10;27.80;;;;;;492132;240;938;-70
2021/01/06 11:48:05;;;;;;;;;;;20.10;27.90;;;;;;492127;240;1358;-70
2021/01/06 11:50:06;;;;;;;;;;;20.00;27.90;;;;;;491978;240;1250;-70
2021/01/06 11:52:07;;;;;;;;;;;20.10;27.90;;;;;;492023;240;1059;-70
2021/01/06 11:54:08;;;;;;;;;;;20.10;27.90;;;;;;492166;240;1192;-70
2021/01/06 11:56:10;;;;;;;;;;;20.10;27.90;;;;;;492124;240;934;-70
2021/01/06 11:58:11;;;;;;;;;;;20.10;27.90;;;;;;492107;240;936;-70
2021/01/06 12:00:13;;;;;;;;;;;20.10;27.90;;;;;;492111;240;940;-70